Time;durP1;ratioP1;P1;durP2;ratioP2;P2;SDS_P1;SDS_P2;PMS_P1;PMS_P2;Temp;Humidity;BMP_temperature;BMP_pressure;BME280_temperature;BME280_humidity;BME280_pressure;Samples;Min_cycle;Max_cycle;Signal;HPM_P1;HPM_P2
2022/05/10 00:01:18;;;;;;;15.63;7.63;;;;;;;;;;5007537;28;20661;-80
2022/05/10 00:03:44;;;;;;;15.45;7.63;;;;;;;;;;5012284;28;20092;-80
2022/05/10 00:06:10;;;;;;;12.07;7.85;;;;;;;;;;5019006;28;20060;-80
2022/05/10 00:08:38;;;;;;;13.35;8.25;;;;;;;;;;5007048;28;20062;-81
2022/05/10 00:11:05;;;;;;;15.02;7.80;;;;;;;;;;5016076;28;20064;-80
2022/05/10 00:13:31;;;;;;;15.27;8.15;;;;;;;;;;5019362;28;20133;-80
2022/05/10 00:15:58;;;;;;;13.02;7.72;;;;;;;;;;5009676;28;20081;-80
2022/05/10 00:18:26;;;;;;;13.52;8.43;;;;;;;;;;5010978;28;20146;-80
2022/05/10 00:20:53;;;;;;;14.45;9.00;;;;;;;;;;5023910;28;20110;-80
2022/05/10 00:23:19;;;;;;;13.45;9.05;;;;;;;;;;5007276;28;20044;-80
2022/05/10 00:25:45;;;;;;;13.20;8.88;;;;;;;;;;5008446;28;20089;-80
2022/05/10 00:28:12;;;;;;;14.82;8.95;;;;;;;;;;5013259;28;20100;-80
2022/05/10 00:30:39;;;;;;;16.08;9.15;;;;;;;;;;5007345;28;20069;-80
2022/05/10 00:33:05;;;;;;;17.42;9.32;;;;;;;;;;5013575;28;20085;-80
2022/05/10 00:35:34;;;;;;;17.65;9.57;;;;;;;;;;5014753;28;20098;-80
2022/05/10 00:38:01;;;;;;;22.88;9.90;;;;;;;;;;5010676;28;20596;-80
2022/05/10 00:40:31;;;;;;;17.40;10.38;;;;;;;;;;5014896;28;20141;-80
2022/05/10 00:43:01;;;;;;;19.42;9.88;;;;;;;;;;5006479;28;20145;-80
2022/05/10 00:45:32;;;;;;;17.33;9.40;;;;;;;;;;5001793;28;20559;-81
2022/05/10 00:48:03;;;;;;;20.35;9.63;;;;;;;;;;5027239;28;20054;-81
2022/05/10 00:50:34;;;;;;;15.98;9.40;;;;;;;;;;5038250;28;21008;-80
2022/05/10 00:53:06;;;;;;;17.25;9.35;;;;;;;;;;5013376;28;20111;-81
2022/05/10 00:55:35;;;;;;;17.63;10.32;;;;;;;;;;5008910;28;20534;-80
2022/05/10 00:58:20;;;;;;;19.38;9.73;;;;;;;;;;5010850;28;20136;-80
2022/05/10 01:00:47;;;;;;;17.35;10.18;;;;;;;;;;5006515;28;20055;-80
2022/05/10 01:03:22;;;;;;;17.77;9.45;;;;;;;;;;5005102;28;20110;-81
2022/05/10 01:06:04;;;;;;;18.02;10.70;;;;;;;;;;5015409;28;20061;-80
2022/05/10 01:08:45;;;;;;;16.42;9.63;;;;;;;;;;5008726;28;20085;-80
2022/05/10 01:11:25;;;;;;;15.02;9.32;;;;;;;;;;5012145;28;20058;-80
2022/05/10 01:14:10;;;;;;;16.70;10.07;;;;;;;;;;5000164;28;21025;-80
2022/05/10 01:16:36;;;;;;;18.95;10.55;;;;;;;;;;5016465;28;20962;-80
2022/05/10 01:19:03;;;;;;;17.52;11.10;;;;;;;;;;5014903;28;20070;-79
2022/05/10 01:21:38;;;;;;;15.38;10.48;;;;;;;;;;5004903;28;20051;-80
2022/05/10 01:24:23;;;;;;;15.70;9.98;;;;;;;;;;5036029;28;20141;-80
2022/05/10 01:26:50;;;;;;;17.27;10.25;;;;;;;;;;5006313;28;20077;-80
2022/05/10 01:29:23;;;;;;;16.42;9.32;;;;;;;;;;5040700;28;20086;-80
2022/05/10 01:33:29;;;;;;;17.52;10.18;;;;;;;;;;5015033;28;20057;-80
2022/05/10 01:34:39;;;;;;;15.07;10.43;;;;;;;;;;5016213;28;20133;-80
2022/05/10 01:37:11;;;;;;;16.23;10.73;;;;;;;;;;5008693;28;20062;-80
2022/05/10 01:39:47;;;;;;;16.90;9.80;;;;;;;;;;5032085;28;20133;-80
2022/05/10 01:42:19;;;;;;;16.63;10.60;;;;;;;;;;5027145;28;20132;-80
2022/05/10 01:44:52;;;;;;;19.42;10.90;;;;;;;;;;5010577;28;20574;-80
2022/05/10 01:47:36;;;;;;;18.20;10.88;;;;;;;;;;5008679;28;20519;-81
2022/05/10 01:50:10;;;;;;;19.52;11.00;;;;;;;;;;5027363;28;20142;-80
2022/05/10 01:52:49;;;;;;;19.00;11.93;;;;;;;;;;5008386;28;20064;-80
2022/05/10 01:55:48;;;;;;;16.10;10.85;;;;;;;;;;5016806;28;20093;-80
2022/05/10 01:58:18;;;;;;;16.38;10.48;;;;;;;;;;4971309;28;20046;-80
2022/05/10 02:00:49;;;;;;;23.73;11.40;;;;;;;;;;5007845;28;20149;-80
2022/05/10 02:03:34;;;;;;;17.63;11.07;;;;;;;;;;5009402;28;20110;-80
2022/05/10 02:06:21;;;;;;;22.67;11.27;;;;;;;;;;5009459;28;20923;-80
2022/05/10 02:09:00;;;;;;;15.38;10.40;;;;;;;;;;5014680;28;20105;-80
2022/05/10 02:11:31;;;;;;;18.67;11.02;;;;;;;;;;5004038;28;20050;-80
2022/05/10 02:13:57;;;;;;;20.02;12.00;;;;;;;;;;5011382;28;20058;-81
2022/05/10 02:16:26;;;;;;;21.25;11.75;;;;;;;;;;5017713;28;21439;-80
2022/05/10 02:19:07;;;;;;;19.08;11.70;;;;;;;;;;5007416;28;20057;-79
2022/05/10 02:21:39;;;;;;;22.35;12.95;;;;;;;;;;5027182;28;20065;-79
2022/05/10 02:24:25;;;;;;;22.70;12.85;;;;;;;;;;5014633;28;20966;-79
2022/05/10 02:26:55;;;;;;;25.02;13.20;;;;;;;;;;5008263;28;20066;-79
2022/05/10 02:29:35;;;;;;;20.13;12.57;;;;;;;;;;5004240;28;20081;-79
2022/05/10 02:34:54;;;;;;;17.63;11.43;;;;;;;;;;5003156;28;20795;-79
2022/05/10 02:37:20;;;;;;;19.90;11.15;;;;;;;;;;5005517;28;20129;-79
2022/05/10 02:39:47;;;;;;;19.27;11.15;;;;;;;;;;5021719;28;20097;-79
2022/05/10 02:42:15;;;;;;;19.02;11.45;;;;;;;;;;5012425;28;20584;-79
2022/05/10 02:44:41;;;;;;;22.65;11.95;;;;;;;;;;5003837;28;20137;-80
2022/05/10 02:47:09;;;;;;;18.10;11.65;;;;;;;;;;5015541;28;20054;-79
2022/05/10 02:49:36;;;;;;;22.48;12.85;;;;;;;;;;5004369;28;20089;-79
2022/05/10 02:52:03;;;;;;;22.65;13.25;;;;;;;;;;5016386;28;20089;-79
2022/05/10 02:54:30;;;;;;;21.20;12.40;;;;;;;;;;5030655;28;20137;-80
2022/05/10 02:56:59;;;;;;;19.23;12.38;;;;;;;;;;5015641;28;20057;-79
2022/05/10 02:59:27;;;;;;;26.02;13.10;;;;;;;;;;5015226;28;20068;-80
2022/05/10 03:01:53;;;;;;;21.27;12.75;;;;;;;;;;5004223;28;20055;-80
2022/05/10 03:04:21;;;;;;;22.33;12.82;;;;;;;;;;5006195;28;20043;-79
2022/05/10 03:06:48;;;;;;;22.80;13.05;;;;;;;;;;5014650;28;20113;-79
2022/05/10 03:09:15;;;;;;;22.88;13.02;;;;;;;;;;5009561;28;20541;-79
2022/05/10 03:11:41;;;;;;;23.90;13.38;;;;;;;;;;5015318;28;20141;-79
2022/05/10 03:14:09;;;;;;;22.30;13.60;;;;;;;;;;5014938;28;20527;-80
2022/05/10 03:16:35;;;;;;;25.17;13.98;;;;;;;;;;5008479;28;20050;-80
2022/05/10 03:19:04;;;;;;;23.13;14.45;;;;;;;;;;5008390;28;20048;-78
2022/05/10 03:21:30;;;;;;;26.25;14.95;;;;;;;;;;5006646;28;20050;-79
2022/05/10 03:23:56;;;;;;;26.15;16.02;;;;;;;;;;5010527;28;20115;-80
2022/05/10 03:26:24;;;;;;;25.58;15.43;;;;;;;;;;5015592;28;20085;-79
2022/05/10 03:28:50;;;;;;;30.73;16.98;;;;;;;;;;5024369;28;20568;-79
2022/05/10 03:31:17;;;;;;;25.92;16.30;;;;;;;;;;5014870;28;21537;-80
2022/05/10 03:33:44;;;;;;;29.13;16.83;;;;;;;;;;5007546;28;20097;-79
2022/05/10 03:36:10;;;;;;;33.72;17.63;;;;;;;;;;5006172;28;20239;-79
2022/05/10 03:38:37;;;;;;;31.40;18.30;;;;;;;;;;5007408;28;20119;-79
2022/05/10 03:41:03;;;;;;;35.63;17.83;;;;;;;;;;5009357;28;20050;-79
2022/05/10 03:43:30;;;;;;;31.95;17.75;;;;;;;;;;5015259;28;20626;-80
2022/05/10 03:45:57;;;;;;;33.88;18.85;;;;;;;;;;5009456;28;20466;-79
2022/05/10 03:48:24;;;;;;;32.80;17.48;;;;;;;;;;5006868;28;20116;-80
2022/05/10 03:50:50;;;;;;;31.20;17.58;;;;;;;;;;5004142;28;20054;-79
2022/05/10 03:53:16;;;;;;;28.90;16.98;;;;;;;;;;5010011;28;20644;-79
2022/05/10 03:55:43;;;;;;;31.00;17.58;;;;;;;;;;5019217;28;20085;-80
2022/05/10 03:58:10;;;;;;;31.52;17.90;;;;;;;;;;5011707;28;20054;-79
2022/05/10 04:00:36;;;;;;;33.83;17.45;;;;;;;;;;5033559;28;20065;-80
2022/05/10 04:03:03;;;;;;;29.52;16.88;;;;;;;;;;5007486;28;20204;-80
2022/05/10 04:05:29;;;;;;;33.13;18.02;;;;;;;;;;5003863;28;20057;-79
2022/05/10 04:07:55;;;;;;;31.88;18.25;;;;;;;;;;5038952;28;20050;-80
2022/05/10 04:10:22;;;;;;;35.17;19.10;;;;;;;;;;5007243;28;20245;-79
2022/05/10 04:12:48;;;;;;;30.50;17.25;;;;;;;;;;5006463;28;20050;-79
2022/05/10 04:15:16;;;;;;;33.30;17.80;;;;;;;;;;5010128;28;20505;-79
2022/05/10 04:17:42;;;;;;;34.08;20.27;;;;;;;;;;5004322;28;20081;-79
2022/05/10 04:20:10;;;;;;;32.20;17.75;;;;;;;;;;5006275;28;20970;-79
2022/05/10 04:22:36;;;;;;;32.55;18.90;;;;;;;;;;4999800;28;20497;-79
2022/05/10 04:25:12;;;;;;;32.60;17.65;;;;;;;;;;5013989;28;20058;-79
2022/05/10 04:27:39;;;;;;;35.63;18.40;;;;;;;;;;5006314;28;20113;-80
2022/05/10 04:30:06;;;;;;;30.10;16.85;;;;;;;;;;5020012;28;20108;-79
2022/05/10 04:32:34;;;;;;;31.80;18.92;;;;;;;;;;5006305;28;20052;-79
2022/05/10 04:35:00;;;;;;;34.70;19.13;;;;;;;;;;5013963;28;20117;-80
2022/05/10 04:37:27;;;;;;;30.75;17.88;;;;;;;;;;5021692;28;20054;-79
2022/05/10 04:42:42;;;;;;;28.98;18.05;;;;;;;;;;5001849;28;20064;-80
2022/05/10 04:45:08;;;;;;;32.22;19.15;;;;;;;;;;5006475;28;20457;-79
2022/05/10 04:47:37;;;;;;;29.40;18.27;;;;;;;;;;5005531;28;20060;-80
2022/05/10 04:50:03;;;;;;;28.40;17.35;;;;;;;;;;5012147;28;20525;-80
2022/05/10 04:52:30;;;;;;;26.60;17.23;;;;;;;;;;5001095;28;20141;-80
2022/05/10 04:54:56;;;;;;;31.17;17.77;;;;;;;;;;5015081;28;21256;-80
2022/05/10 04:57:22;;;;;;;30.67;17.15;;;;;;;;;;5016330;28;20050;-81
2022/05/10 04:59:49;;;;;;;31.20;16.13;;;;;;;;;;5007398;28;20066;-81
2022/05/10 05:02:15;;;;;;;30.15;17.52;;;;;;;;;;5006864;28;20461;-81
2022/05/10 05:04:42;;;;;;;30.73;16.42;;;;;;;;;;5007156;28;20063;-81
2022/05/10 05:07:09;;;;;;;27.45;16.85;;;;;;;;;;5006925;28;20136;-81
2022/05/10 05:09:35;;;;;;;30.30;17.48;;;;;;;;;;5010318;28;20049;-81
2022/05/10 05:12:04;;;;;;;28.02;17.30;;;;;;;;;;5003649;28;20054;-81
2022/05/10 05:14:31;;;;;;;32.25;17.27;;;;;;;;;;4996056;28;20093;-81
2022/05/10 05:16:59;;;;;;;29.55;16.45;;;;;;;;;;5005596;28;20058;-80
2022/05/10 05:19:26;;;;;;;27.98;17.85;;;;;;;;;;5009337;28;20065;-80
2022/05/10 05:21:52;;;;;;;31.50;17.70;;;;;;;;;;5001573;28;20164;-80
2022/05/10 05:24:24;;;;;;;30.92;17.20;;;;;;;;;;5005877;28;20064;-80
2022/05/10 05:26:52;;;;;;;31.75;17.33;;;;;;;;;;5009688;28;20084;-81
2022/05/10 05:29:19;;;;;;;27.65;16.73;;;;;;;;;;5007393;28;20588;-81
2022/05/10 05:31:46;;;;;;;32.90;16.27;;;;;;;;;;5009742;28;20094;-80
2022/05/10 05:34:12;;;;;;;27.58;16.65;;;;;;;;;;5014277;28;20105;-80
2022/05/10 05:36:38;;;;;;;28.48;16.67;;;;;;;;;;5005740;28;20374;-81
2022/05/10 05:39:05;;;;;;;24.45;15.65;;;;;;;;;;5013038;28;20053;-80
2022/05/10 05:41:31;;;;;;;28.55;16.05;;;;;;;;;;5004240;28;20181;-81
2022/05/10 05:43:57;;;;;;;28.65;15.55;;;;;;;;;;5001502;28;20129;-80
2022/05/10 05:46:25;;;;;;;25.58;15.55;;;;;;;;;;5005221;28;20054;-81
2022/05/10 05:48:51;;;;;;;29.33;14.75;;;;;;;;;;5005846;28;20606;-80
2022/05/10 05:51:17;;;;;;;26.15;14.98;;;;;;;;;;5001132;28;20686;-81
2022/05/10 05:53:44;;;;;;;22.20;14.38;;;;;;;;;;5008705;28;20065;-81
2022/05/10 05:56:11;;;;;;;23.92;13.55;;;;;;;;;;5006265;28;20085;-80
2022/05/10 05:58:38;;;;;;;26.30;13.98;;;;;;;;;;5027191;28;20054;-80
2022/05/10 06:01:15;;;;;;;26.00;14.77;;;;;;;;;;5002787;28;20141;-81
2022/05/10 06:03:42;;;;;;;22.60;14.05;;;;;;;;;;5005393;28;20054;-81
2022/05/10 06:06:09;;;;;;;23.98;13.52;;;;;;;;;;5006899;28;20066;-80
2022/05/10 06:08:42;;;;;;;22.50;13.48;;;;;;;;;;5000964;28;20073;-81
2022/05/10 06:11:08;;;;;;;26.50;14.23;;;;;;;;;;5004998;28;20041;-81
2022/05/10 06:13:35;;;;;;;21.90;13.73;;;;;;;;;;5006220;28;20054;-81
2022/05/10 06:16:04;;;;;;;26.95;13.57;;;;;;;;;;5005369;28;20154;-81
2022/05/10 06:18:30;;;;;;;23.70;13.82;;;;;;;;;;5018361;28;20909;-81
2022/05/10 06:20:57;;;;;;;24.83;14.30;;;;;;;;;;5014252;28;20081;-81
2022/05/10 06:23:23;;;;;;;26.92;14.45;;;;;;;;;;4999476;28;20137;-81
2022/05/10 06:25:49;;;;;;;22.77;13.07;;;;;;;;;;5008372;28;20145;-81
2022/05/10 06:28:16;;;;;;;26.85;14.65;;;;;;;;;;5004689;28;20084;-81
2022/05/10 06:30:43;;;;;;;23.30;13.52;;;;;;;;;;5005493;28;20675;-81
2022/05/10 06:33:10;;;;;;;24.73;13.35;;;;;;;;;;5005013;28;20078;-81
2022/05/10 06:35:37;;;;;;;24.50;14.05;;;;;;;;;;5005485;28;20053;-82
2022/05/10 06:38:16;;;;;;;26.73;13.57;;;;;;;;;;4991327;28;20508;-81
2022/05/10 06:40:43;;;;;;;23.52;13.52;;;;;;;;;;5017350;28;20046;-81
2022/05/10 06:43:09;;;;;;;28.42;13.90;;;;;;;;;;5017913;28;20060;-81
2022/05/10 06:45:36;;;;;;;27.27;13.57;;;;;;;;;;5007398;28;20144;-82
2022/05/10 06:48:03;;;;;;;28.35;13.38;;;;;;;;;;5008209;28;20046;-82
2022/05/10 06:50:30;;;;;;;22.65;12.93;;;;;;;;;;5018641;28;20142;-82
2022/05/10 06:52:57;;;;;;;24.30;13.02;;;;;;;;;;5005126;28;20058;-82
2022/05/10 06:55:27;;;;;;;24.30;13.35;;;;;;;;;;5007783;28;20054;-82
2022/05/10 06:57:54;;;;;;;20.05;12.55;;;;;;;;;;5006613;28;20062;-83
2022/05/10 07:00:22;;;;;;;23.42;12.45;;;;;;;;;;4984251;28;20595;-81
2022/05/10 07:02:49;;;;;;;24.63;12.55;;;;;;;;;;5001827;28;20035;-83
2022/05/10 07:05:16;;;;;;;22.55;12.18;;;;;;;;;;5002413;28;20050;-82
2022/05/10 07:07:43;;;;;;;21.52;11.80;;;;;;;;;;5004672;28;20093;-82
2022/05/10 07:10:11;;;;;;;23.90;12.13;;;;;;;;;;5003730;28;20145;-79
2022/05/10 07:12:38;;;;;;;19.70;11.50;;;;;;;;;;5001382;28;21554;-82
2022/05/10 07:15:05;;;;;;;20.00;11.70;;;;;;;;;;5003068;28;20054;-80
2022/05/10 07:17:33;;;;;;;18.02;11.40;;;;;;;;;;5004494;28;20068;-83
2022/05/10 07:19:59;;;;;;;17.58;11.27;;;;;;;;;;5005491;28;20066;-81
2022/05/10 07:22:25;;;;;;;22.92;12.63;;;;;;;;;;5002847;28;20077;-81
2022/05/10 07:24:52;;;;;;;18.95;11.15;;;;;;;;;;5004196;28;20062;-82
2022/05/10 07:27:18;;;;;;;19.83;11.43;;;;;;;;;;5012800;28;20060;-80
2022/05/10 07:29:44;;;;;;;16.42;11.32;;;;;;;;;;5011260;28;20055;-82
2022/05/10 07:32:12;;;;;;;17.25;11.13;;;;;;;;;;5029710;28;20058;-80
2022/05/10 07:34:39;;;;;;;20.13;11.45;;;;;;;;;;4992203;28;20133;-80
2022/05/10 07:37:05;;;;;;;18.63;11.00;;;;;;;;;;5009596;28;20113;-79
2022/05/10 07:39:31;;;;;;;20.42;11.95;;;;;;;;;;4994892;28;21158;-80
2022/05/10 07:41:59;;;;;;;19.88;12.15;;;;;;;;;;5007380;28;20149;-80
2022/05/10 07:44:25;;;;;;;20.50;11.65;;;;;;;;;;5005797;28;20074;-80
2022/05/10 07:46:51;;;;;;;18.85;11.65;;;;;;;;;;5008895;28;20074;-80
2022/05/10 07:49:18;;;;;;;20.65;12.23;;;;;;;;;;5004181;28;20101;-84
2022/05/10 07:51:44;;;;;;;19.13;11.88;;;;;;;;;;5003431;28;20054;-82
2022/05/10 07:54:11;;;;;;;20.85;11.85;;;;;;;;;;5016426;28;20053;-81
2022/05/10 07:56:38;;;;;;;20.15;11.73;;;;;;;;;;5009811;28;20138;-80
2022/05/10 07:59:04;;;;;;;21.00;12.13;;;;;;;;;;5006903;28;20146;-79
2022/05/10 08:01:30;;;;;;;21.50;12.30;;;;;;;;;;5011783;28;20106;-79
2022/05/10 08:03:57;;;;;;;20.13;12.88;;;;;;;;;;5010360;28;20050;-80
2022/05/10 08:06:24;;;;;;;20.00;12.43;;;;;;;;;;5020046;28;20145;-80
2022/05/10 08:08:51;;;;;;;17.10;12.13;;;;;;;;;;5021411;28;20097;-80
2022/05/10 08:11:17;;;;;;;17.30;12.15;;;;;;;;;;5014918;28;20058;-81
2022/05/10 08:13:44;;;;;;;19.60;12.43;;;;;;;;;;5005209;28;20090;-78
2022/05/10 08:16:10;;;;;;;18.67;11.63;;;;;;;;;;5015561;28;20511;-80
2022/05/10 08:18:55;;;;;;;19.38;12.15;;;;;;;;;;5012623;28;20093;-81
2022/05/10 08:21:24;;;;;;;17.02;11.60;;;;;;;;;;5003057;28;20051;-81
2022/05/10 08:23:53;;;;;;;23.33;12.30;;;;;;;;;;5004487;28;20233;-78
2022/05/10 08:26:22;;;;;;;20.88;11.48;;;;;;;;;;5002647;28;20047;-78
2022/05/10 08:28:48;;;;;;;16.67;9.98;;;;;;;;;;5005353;28;20094;-79
2022/05/10 08:31:20;;;;;;;18.73;10.23;;;;;;;;;;5011348;28;20062;-78
2022/05/10 08:33:47;;;;;;;20.35;10.45;;;;;;;;;;5013208;28;20061;-79
2022/05/10 08:36:13;;;;;;;13.70;9.35;;;;;;;;;;5011326;28;20114;-80
2022/05/10 08:38:43;;;;;;;17.73;9.60;;;;;;;;;;5014242;28;20090;-80
2022/05/10 08:41:17;;;;;;;14.43;9.57;;;;;;;;;;5017265;28;20074;-80
2022/05/10 08:43:46;;;;;;;13.15;8.95;;;;;;;;;;5038892;22;20042;-80
2022/05/10 08:46:15;;;;;;;24.05;10.38;;;;;;;;;;5015442;28;20054;-80
2022/05/10 08:48:45;;;;;;;16.98;8.95;;;;;;;;;;5011179;28;20145;-80
2022/05/10 08:51:17;;;;;;;12.65;8.85;;;;;;;;;;5005550;28;21615;-81
2022/05/10 08:53:44;;;;;;;17.83;9.43;;;;;;;;;;5004897;28;20141;-80
2022/05/10 08:56:26;;;;;;;13.40;9.00;;;;;;;;;;5009593;28;20061;-80
2022/05/10 08:59:16;;;;;;;15.23;9.63;;;;;;;;;;5015282;28;20055;-81
2022/05/10 09:01:50;;;;;;;12.63;9.03;;;;;;;;;;4998229;28;20062;-82
2022/05/10 09:04:19;;;;;;;14.73;9.05;;;;;;;;;;5011063;28;20034;-81
2022/05/10 09:07:12;;;;;;;19.15;8.85;;;;;;;;;;5025847;28;20058;-82
2022/05/10 09:09:49;;;;;;;12.75;8.85;;;;;;;;;;5026368;28;20058;-82
2022/05/10 09:12:19;;;;;;;11.52;8.73;;;;;;;;;;5028546;28;20928;-81
2022/05/10 09:14:53;;;;;;;11.82;8.75;;;;;;;;;;5025579;28;20057;-81
2022/05/10 09:17:20;;;;;;;12.77;8.02;;;;;;;;;;5012694;28;20022;-82
2022/05/10 09:19:47;;;;;;;12.02;7.85;;;;;;;;;;5034082;28;20047;-82
2022/05/10 09:22:48;;;;;;;13.90;7.40;;;;;;;;;;5019286;28;20050;-81
2022/05/10 09:25:28;;;;;;;14.02;7.97;;;;;;;;;;5019293;28;20054;-83
2022/05/10 09:27:54;;;;;;;15.10;8.50;;;;;;;;;;5021471;28;20046;-81
2022/05/10 09:30:24;;;;;;;15.68;8.80;;;;;;;;;;5003882;28;20222;-78
2022/05/10 09:35:48;;;;;;;13.27;7.78;;;;;;;;;;5002812;28;20141;-80
2022/05/10 09:38:16;;;;;;;13.20;7.95;;;;;;;;;;5007139;28;20075;-80
2022/05/10 09:40:46;;;;;;;13.68;8.20;;;;;;;;;;5003052;28;20054;-80
2022/05/10 09:43:23;;;;;;;10.93;7.32;;;;;;;;;;5002920;28;20895;-80
2022/05/10 09:46:10;;;;;;;11.70;7.72;;;;;;;;;;5003122;28;20133;-81
2022/05/10 09:48:38;;;;;;;11.30;7.20;;;;;;;;;;4992128;28;20062;-80
2022/05/10 09:51:18;;;;;;;14.23;7.95;;;;;;;;;;5003738;28;20084;-80
2022/05/10 09:53:44;;;;;;;14.43;8.15;;;;;;;;;;5003566;28;20052;-80
2022/05/10 09:56:23;;;;;;;14.98;7.90;;;;;;;;;;5004389;28;20521;-80
2022/05/10 09:58:54;;;;;;;13.25;7.20;;;;;;;;;;5003493;28;20197;-80
2022/05/10 10:01:38;;;;;;;12.98;6.93;;;;;;;;;;5018598;28;20101;-81
2022/05/10 10:04:19;;;;;;;12.63;7.00;;;;;;;;;;5006005;28;20504;-79
2022/05/10 10:07:02;;;;;;;11.38;6.57;;;;;;;;;;5008791;28;20054;-80
2022/05/10 10:09:30;;;;;;;10.27;6.38;;;;;;;;;;5006931;28;20048;-80
2022/05/10 10:11:56;;;;;;;13.25;6.80;;;;;;;;;;4993238;28;20090;-80
2022/05/10 10:14:38;;;;;;;11.32;7.13;;;;;;;;;;5003301;28;20514;-80
2022/05/10 10:17:04;;;;;;;14.43;6.97;;;;;;;;;;5006263;28;20149;-80
2022/05/10 10:19:35;;;;;;;11.32;6.68;;;;;;;;;;4996814;28;20057;-80
2022/05/10 10:22:10;;;;;;;15.45;6.60;;;;;;;;;;5007307;28;20110;-80
2022/05/10 10:24:46;;;;;;;13.40;6.78;;;;;;;;;;5017988;28;20145;-80
2022/05/10 10:27:20;;;;;;;12.13;6.38;;;;;;;;;;4994850;28;20113;-80
2022/05/10 10:29:54;;;;;;;14.30;6.80;;;;;;;;;;4999721;28;20050;-80
2022/05/10 10:32:23;;;;;;;14.38;7.53;;;;;;;;;;5005690;28;20054;-80
2022/05/10 10:35:16;;;;;;;12.75;7.00;;;;;;;;;;5004938;28;20039;-80
2022/05/10 10:37:46;;;;;;;13.27;7.43;;;;;;;;;;5006855;28;20157;-82
2022/05/10 10:40:13;;;;;;;;;;;;;;;;;;5011127;28;20062;-80
2022/05/10 10:42:48;;;;;;;13.82;6.97;;;;;;;;;;5024978;28;48099;-79
2022/05/10 10:45:16;;;;;;;13.00;6.80;;;;;;;;;;5028198;28;20062;-80
2022/05/10 10:47:49;;;;;;;13.80;7.57;;;;;;;;;;5005218;28;20843;-80
2022/05/10 10:50:20;;;;;;;13.50;7.10;;;;;;;;;;5004168;28;20050;-79
2022/05/10 10:52:48;;;;;;;11.80;6.22;;;;;;;;;;5013169;28;20058;-80
2022/05/10 10:55:18;;;;;;;9.43;6.10;;;;;;;;;;5009463;28;20063;-80
2022/05/10 10:58:03;;;;;;;9.70;6.38;;;;;;;;;;5006874;28;20050;-80
2022/05/10 11:00:37;;;;;;;11.02;6.53;;;;;;;;;;5001875;28;20054;-79
2022/05/10 11:03:03;;;;;;;9.25;6.10;;;;;;;;;;5004512;28;20069;-80
2022/05/10 11:05:41;;;;;;;12.75;6.53;;;;;;;;;;5013453;28;20102;-79
2022/05/10 11:08:23;;;;;;;8.90;5.32;;;;;;;;;;5019915;28;20263;-79
2022/05/10 11:10:50;;;;;;;12.60;5.22;;;;;;;;;;5005796;28;20207;-80
2022/05/10 11:13:28;;;;;;;16.25;4.50;;;;;;;;;;4995405;28;20060;-78
2022/05/10 11:16:13;;;;;;;11.68;5.00;;;;;;;;;;5006958;28;20062;-79
2022/05/10 11:18:56;;;;;;;9.18;4.38;;;;;;;;;;5007513;28;20201;-78
2022/05/10 11:21:38;;;;;;;10.32;4.22;;;;;;;;;;5003569;28;20054;-78
2022/05/10 11:24:19;;;;;;;11.25;4.20;;;;;;;;;;4998452;28;20125;-79
2022/05/10 11:26:51;;;;;;;12.40;4.40;;;;;;;;;;5003024;28;20258;-79
2022/05/10 11:29:33;;;;;;;9.40;4.53;;;;;;;;;;5004111;28;20140;-79
2022/05/10 11:31:59;;;;;;;11.00;4.75;;;;;;;;;;5003365;28;20258;-79
2022/05/10 11:34:45;;;;;;;8.32;4.28;;;;;;;;;;5026107;28;20058;-79
2022/05/10 11:37:15;;;;;;;8.30;4.22;;;;;;;;;;5024903;28;20046;-79
2022/05/10 11:39:58;;;;;;;9.93;4.50;;;;;;;;;;5009285;28;20068;-79
2022/05/10 11:42:32;;;;;;;9.88;4.72;;;;;;;;;;5010770;28;20046;-80
2022/05/10 11:45:20;;;;;;;9.95;5.03;;;;;;;;;;5009256;28;20053;-80
2022/05/10 11:47:54;;;;;;;8.68;4.38;;;;;;;;;;5010021;28;20105;-80
2022/05/10 11:50:39;;;;;;;11.75;5.10;;;;;;;;;;5011479;28;20074;-79
2022/05/10 11:53:16;;;;;;;10.18;4.47;;;;;;;;;;5011941;28;20046;-79
2022/05/10 11:55:51;;;;;;;11.45;5.13;;;;;;;;;;5008584;28;20130;-80
2022/05/10 11:58:17;;;;;;;7.30;4.50;;;;;;;;;;5018001;28;20137;-80
2022/05/10 12:00:45;;;;;;;13.93;3.97;;;;;;;;;;5010684;28;20058;-80
2022/05/10 12:03:32;;;;;;;6.90;3.70;;;;;;;;;;5010391;28;20093;-80
2022/05/10 12:06:18;;;;;;;10.95;3.75;;;;;;;;;;5002546;28;20545;-80
2022/05/10 12:08:44;;;;;;;10.70;4.10;;;;;;;;;;4999623;28;20129;-80
2022/05/10 12:11:41;;;;;;;11.30;4.20;;;;;;;;;;5002712;28;20832;-80
2022/05/10 12:22:45;;;;;;;9.98;5.38;;;;;;;;;;5008188;28;20753;-80
2022/05/10 12:25:30;;;;;;;11.57;5.03;;;;;;;;;;5005475;28;20472;-80
2022/05/10 12:27:57;;;;;;;12.02;5.50;;;;;;;;;;5032815;28;20090;-80
2022/05/10 12:30:32;;;;;;;10.00;5.43;;;;;;;;;;5008770;28;20041;-80
2022/05/10 12:33:17;;;;;;;12.63;7.07;;;;;;;;;;5009296;28;20074;-80
2022/05/10 12:35:44;;;;;;;11.25;5.82;;;;;;;;;;5007616;28;20092;-79
2022/05/10 12:38:31;;;;;;;12.93;6.20;;;;;;;;;;5012170;28;20058;-79
2022/05/10 12:41:04;;;;;;;10.65;5.65;;;;;;;;;;5002682;28;20577;-79
2022/05/10 12:43:31;;;;;;;8.98;5.50;;;;;;;;;;5011100;28;20113;-80
2022/05/10 12:46:05;;;;;;;14.05;6.32;;;;;;;;;;5012570;28;20059;-79
2022/05/10 12:48:51;;;;;;;16.65;6.65;;;;;;;;;;5008884;28;20543;-79
2022/05/10 12:51:20;;;;;;;13.70;6.40;;;;;;;;;;5015120;28;20114;-80
2022/05/10 12:53:53;;;;;;;11.77;7.10;;;;;;;;;;5004667;28;20078;-79
2022/05/10 12:56:20;;;;;;;12.07;6.70;;;;;;;;;;5007557;28;20054;-80
2022/05/10 12:58:49;;;;;;;11.98;7.95;;;;;;;;;;5009335;28;20097;-80
2022/05/10 13:01:17;;;;;;;15.07;7.35;;;;;;;;;;5009426;28;20142;-80
2022/05/10 13:03:46;;;;;;;15.23;6.60;;;;;;;;;;5012213;28;20046;-79
2022/05/10 13:06:33;;;;;;;13.43;6.63;;;;;;;;;;5011011;28;20059;-79
2022/05/10 13:09:04;;;;;;;11.25;6.25;;;;;;;;;;5005364;28;20437;-79
2022/05/10 13:11:39;;;;;;;11.98;7.05;;;;;;;;;;5008445;28;20065;-79
2022/05/10 13:14:06;;;;;;;10.32;6.78;;;;;;;;;;5011667;28;20080;-79
2022/05/10 13:16:32;;;;;;;13.40;7.55;;;;;;;;;;5010723;28;20071;-79
2022/05/10 13:18:59;;;;;;;13.93;7.10;;;;;;;;;;5011926;28;20066;-79
2022/05/10 13:21:28;;;;;;;9.43;6.28;;;;;;;;;;5007930;28;20058;-79
2022/05/10 13:23:57;;;;;;;13.93;6.30;;;;;;;;;;5009455;28;20054;-79
2022/05/10 13:26:23;;;;;;;11.48;6.50;;;;;;;;;;5010157;28;20146;-79
2022/05/10 13:29:00;;;;;;;11.57;6.85;;;;;;;;;;5009407;28;20209;-79
2022/05/10 13:31:34;;;;;;;9.18;6.35;;;;;;;;;;5018551;28;20050;-79
2022/05/10 13:34:08;;;;;;;12.68;6.45;;;;;;;;;;5012293;28;20054;-79
2022/05/10 13:36:36;;;;;;;13.30;6.55;;;;;;;;;;5009798;28;20073;-79
2022/05/10 13:39:06;;;;;;;11.00;6.55;;;;;;;;;;5013132;28;20058;-79
2022/05/10 13:41:38;;;;;;;13.45;5.78;;;;;;;;;;4992128;28;20081;-79
2022/05/10 13:44:19;;;;;;;12.07;6.10;;;;;;;;;;5002856;28;20061;-79
2022/05/10 13:46:47;;;;;;;12.95;6.53;;;;;;;;;;5004955;28;20050;-79
2022/05/10 13:49:16;;;;;;;9.90;5.55;;;;;;;;;;4995792;28;20098;-79
2022/05/10 13:51:44;;;;;;;13.43;6.20;;;;;;;;;;5008235;28;21052;-79
2022/05/10 13:54:22;;;;;;;11.57;5.60;;;;;;;;;;5012978;28;20058;-78
2022/05/10 13:56:50;;;;;;;9.60;5.32;;;;;;;;;;5006517;28;20050;-79
2022/05/10 13:59:32;;;;;;;11.60;5.35;;;;;;;;;;5010967;28;20050;-78
2022/05/10 14:02:03;;;;;;;9.20;5.00;;;;;;;;;;5002546;28;20394;-80
2022/05/10 14:04:30;;;;;;;11.85;5.65;;;;;;;;;;5005444;28;20054;-79
2022/05/10 14:07:04;;;;;;;11.43;5.82;;;;;;;;;;5008970;28;20056;-79
2022/05/10 14:09:33;;;;;;;9.30;5.57;;;;;;;;;;5009368;28;20050;-79
2022/05/10 14:12:00;;;;;;;14.07;5.25;;;;;;;;;;5000999;28;20050;-80
2022/05/10 14:14:30;;;;;;;9.23;4.68;;;;;;;;;;5011318;28;20054;-80
2022/05/10 14:16:57;;;;;;;10.32;5.10;;;;;;;;;;5007213;28;20412;-80
2022/05/10 14:19:33;;;;;;;9.55;4.63;;;;;;;;;;5008094;28;20729;-80
2022/05/10 14:22:04;;;;;;;9.52;4.57;;;;;;;;;;5013840;28;20141;-80
2022/05/10 14:24:32;;;;;;;8.05;4.40;;;;;;;;;;5011722;28;20061;-80
2022/05/10 14:27:12;;;;;;;7.32;3.88;;;;;;;;;;5013347;28;20055;-79
2022/05/10 14:29:43;;;;;;;11.23;4.68;;;;;;;;;;5004396;28;20054;-79
2022/05/10 14:32:12;;;;;;;7.88;3.88;;;;;;;;;;5006468;28;20052;-79
2022/05/10 14:34:48;;;;;;;7.50;3.47;;;;;;;;;;5006172;28;20575;-80
2022/05/10 14:37:31;;;;;;;8.73;3.25;;;;;;;;;;5012294;28;20054;-80
2022/05/10 14:40:11;;;;;;;9.85;3.20;;;;;;;;;;5027473;28;20061;-82
2022/05/10 14:43:05;;;;;;;10.95;3.92;;;;;;;;;;4982162;28;20057;-78
2022/05/10 14:45:36;;;;;;;6.80;2.70;;;;;;;;;;4998032;28;20816;-79
2022/05/10 14:48:18;;;;;;;7.32;3.05;;;;;;;;;;5000518;28;20081;-80
2022/05/10 14:50:51;;;;;;;6.97;3.05;;;;;;;;;;5006548;28;20533;-80
2022/05/10 14:53:18;;;;;;;9.23;2.88;;;;;;;;;;5003653;28;20050;-78
2022/05/10 14:55:52;;;;;;;7.05;2.72;;;;;;;;;;5001431;28;20058;-80
2022/05/10 14:58:28;;;;;;;6.57;2.10;;;;;;;;;;4996919;28;20145;-79
2022/05/10 15:01:14;;;;;;;7.57;2.20;;;;;;;;;;4997114;28;20093;-79
2022/05/10 15:03:58;;;;;;;9.00;2.25;;;;;;;;;;5018288;28;20058;-80
2022/05/10 15:06:24;;;;;;;6.43;2.15;;;;;;;;;;4999878;28;20145;-79